Time;durP1;ratioP1;P1;durP2;ratioP2;P2;SDS_P1;SDS_P2;PMS_P1;PMS_P2;Temp;Humidity;BMP_temperature;BMP_pressure;BME280_temperature;BME280_humidity;BME280_pressure;Samples;Min_cycle;Max_cycle;Signal;HPM_P1;HPM_P2
2022/09/30 00:01:50;;;;;;;9.35;3.50;;;12.00;99.90;;;;;;5072101;28;20033;-71
2022/09/30 00:04:18;;;;;;;9.52;3.85;;;12.00;99.90;;;;;;5072600;28;20020;-71
2022/09/30 00:06:45;;;;;;;11.10;3.42;;;12.00;99.90;;;;;;5075181;28;20037;-72
2022/09/30 00:09:12;;;;;;;15.25;4.35;;;11.90;99.90;;;;;;5076905;28;20024;-72
2022/09/30 00:11:38;;;;;;;8.07;4.72;;;12.00;99.90;;;;;;5065413;28;20025;-71
2022/09/30 00:14:07;;;;;;;5.10;3.50;;;11.90;99.90;;;;;;5058591;28;20017;-73
2022/09/30 00:16:35;;;;;;;4.72;3.00;;;11.90;99.90;;;;;;5059729;28;20025;-72
2022/09/30 00:19:04;;;;;;;13.77;4.65;;;11.90;99.90;;;;;;5064702;28;20497;-72
2022/09/30 00:21:32;;;;;;;7.53;3.53;;;11.80;99.90;;;;;;5062802;28;20480;-72
2022/09/30 00:23:59;;;;;;;5.78;2.95;;;11.80;99.90;;;;;;5067875;28;20484;-72
2022/09/30 00:26:25;;;;;;;6.05;3.33;;;11.80;99.90;;;;;;5069017;28;20067;-72
2022/09/30 00:28:54;;;;;;;8.88;3.00;;;11.70;99.90;;;;;;5069915;28;20024;-72
2022/09/30 00:31:21;;;;;;;4.32;3.30;;;11.70;99.90;;;;;;5066874;28;20107;-72
2022/09/30 00:34:06;;;;;;;6.40;2.63;;;11.70;99.90;;;;;;5071636;28;20562;-71
2022/09/30 00:36:44;;;;;;;6.47;3.10;;;11.70;99.90;;;;;;5071469;28;20028;-72
2022/09/30 00:39:15;;;;;;;7.85;2.92;;;11.60;99.90;;;;;;5072996;28;20028;-72
2022/09/30 00:41:43;;;;;;;4.65;3.03;;;11.60;99.90;;;;;;5075677;28;20864;-72
2022/09/30 00:44:49;;;;;;;4.65;3.22;;;11.50;99.90;;;;;;5063070;28;20457;-72
2022/09/30 00:47:33;;;;;;;4.85;2.97;;;11.50;99.90;;;;;;5058681;28;20032;-71
2022/09/30 00:50:14;;;;;;;10.13;3.55;;;11.40;99.90;;;;;;5074820;28;20012;-71
2022/09/30 00:52:42;;;;;;;6.65;3.30;;;11.50;99.90;;;;;;5073051;28;20021;-72
2022/09/30 00:55:28;;;;;;;5.05;3.47;;;11.50;99.90;;;;;;5073254;28;20042;-72
2022/09/30 00:57:55;;;;;;;4.53;3.33;;;11.40;99.90;;;;;;5073162;28;20112;-71
2022/09/30 01:00:21;;;;;;;9.10;3.45;;;11.40;99.90;;;;;;5061758;28;20021;-72
2022/09/30 01:02:48;;;;;;;6.72;2.83;;;11.40;99.90;;;;;;5066847;28;20401;-72
2022/09/30 01:05:14;;;;;;;8.27;3.00;;;11.40;99.90;;;;;;5067912;28;20024;-72
2022/09/30 01:07:41;;;;;;;5.55;3.05;;;11.30;99.90;;;;;;5071113;28;20024;-72
2022/09/30 01:10:06;;;;;;;7.50;3.20;;;11.30;99.90;;;;;;5067050;28;20036;-73
2022/09/30 01:12:32;;;;;;;6.07;3.28;;;11.30;99.90;;;;;;5074847;28;20504;-71
2022/09/30 01:14:59;;;;;;;9.93;3.15;;;11.20;99.90;;;;;;5074519;28;20028;-72
2022/09/30 01:17:31;;;;;;;6.57;2.72;;;11.20;99.90;;;;;;5079184;28;20508;-71
2022/09/30 01:20:35;;;;;;;5.88;2.95;;;11.10;99.90;;;;;;5079370;28;20088;-72
2022/09/30 01:23:33;;;;;;;5.20;3.08;;;11.10;99.90;;;;;;5073023;28;20103;-72
2022/09/30 01:26:17;;;;;;;6.72;2.92;;;11.10;99.90;;;;;;5087944;28;20074;-72
2022/09/30 01:28:56;;;;;;;6.15;2.97;;;11.10;99.90;;;;;;5066255;28;20503;-72
2022/09/30 01:31:42;;;;;;;9.18;3.65;;;11.00;99.90;;;;;;5066217;28;20436;-72
2022/09/30 01:34:27;;;;;;;11.82;3.30;;;11.00;99.90;;;;;;5065674;28;20063;-72
2022/09/30 01:37:16;;;;;;;7.30;3.20;;;11.00;99.90;;;;;;5066779;28;20052;-72
2022/09/30 01:40:24;;;;;;;5.90;2.83;;;11.00;99.90;;;;;;5073276;28;20032;-72
2022/09/30 01:42:58;;;;;;;12.90;4.32;;;11.00;99.90;;;;;;5067434;28;20032;-73
2022/09/30 01:45:51;;;;;;;6.10;2.75;;;11.00;99.90;;;;;;5076624;28;20025;-72
2022/09/30 01:48:26;;;;;;;6.15;3.50;;;11.00;99.90;;;;;;5078497;28;20028;-72
2022/09/30 01:50:58;;;;;;;13.93;3.53;;;11.00;99.90;;;;;;5076571;28;20057;-72
2022/09/30 01:53:44;;;;;;;6.05;3.17;;;11.00;99.90;;;;;;5079296;28;20393;-72
2022/09/30 01:56:33;;;;;;;6.57;3.35;;;11.00;99.90;;;;;;5063592;28;20370;-71
2022/09/30 01:59:03;;;;;;;4.25;3.15;;;11.00;99.90;;;;;;5068778;28;20079;-72
2022/09/30 02:01:38;;;;;;;12.63;3.45;;;11.10;99.90;;;;;;5062946;28;20025;-72
2022/09/30 02:04:12;;;;;;;7.88;3.40;;;11.10;99.90;;;;;;5068075;28;20068;-72
2022/09/30 02:06:43;;;;;;;5.57;3.17;;;11.10;99.90;;;;;;5064745;28;20029;-73
2022/09/30 02:09:36;;;;;;;6.57;3.35;;;11.10;99.90;;;;;;5070639;28;20539;-72
2022/09/30 02:12:06;;;;;;;5.88;3.22;;;11.10;99.90;;;;;;5073797;28;20017;-72
2022/09/30 02:14:49;;;;;;;7.50;3.53;;;11.10;99.90;;;;;;5073969;28;20548;-73
2022/09/30 02:17:39;;;;;;;10.00;3.85;;;11.10;99.90;;;;;;5074814;28;20032;-71
2022/09/30 02:20:37;;;;;;;5.90;3.17;;;11.10;99.90;;;;;;5075977;28;20056;-71
2022/09/30 02:23:12;;;;;;;5.15;2.75;;;11.10;99.90;;;;;;5072840;28;20036;-72
2022/09/30 02:25:44;;;;;;;5.85;3.20;;;11.10;99.90;;;;;;5070653;28;20116;-71
2022/09/30 02:28:17;;;;;;;8.15;3.15;;;11.10;99.90;;;;;;5075271;28;20060;-73
2022/09/30 02:30:48;;;;;;;5.82;4.07;;;11.20;99.90;;;;;;5068724;28;20021;-72
2022/09/30 02:33:24;;;;;;;7.05;2.97;;;11.20;99.90;;;;;;5061244;28;20025;-72
2022/09/30 02:35:56;;;;;;;8.48;3.50;;;11.20;99.90;;;;;;5070109;28;20048;-72
2022/09/30 02:38:30;;;;;;;9.90;3.78;;;11.30;99.90;;;;;;5066984;28;20048;-72
2022/09/30 02:41:01;;;;;;;5.32;3.08;;;11.30;99.90;;;;;;5063613;28;20021;-72
2022/09/30 02:43:28;;;;;;;4.82;2.90;;;11.30;99.90;;;;;;5068649;28;20032;-72
2022/09/30 02:46:06;;;;;;;5.85;3.05;;;11.30;99.90;;;;;;5066627;28;20021;-72
2022/09/30 02:49:12;;;;;;;6.95;3.50;;;11.30;99.90;;;;;;5069989;28;20031;-71
2022/09/30 02:51:50;;;;;;;8.13;3.72;;;11.30;99.90;;;;;;5059118;28;20036;-72
2022/09/30 02:54:38;;;;;;;4.45;2.78;;;11.30;99.90;;;;;;5074286;28;20050;-72
2022/09/30 02:57:30;;;;;;;9.80;3.28;;;11.30;99.90;;;;;;5075627;28;20028;-72
2022/09/30 02:59:55;;;;;;;8.82;3.28;;;11.30;99.90;;;;;;5062182;28;20071;-70
2022/09/30 03:02:22;;;;;;;7.97;3.30;;;11.30;99.90;;;;;;5066861;28;20025;-72
2022/09/30 03:04:50;;;;;;;7.57;3.58;;;11.30;99.90;;;;;;5059809;28;20399;-73
2022/09/30 03:07:16;;;;;;;8.23;3.30;;;11.30;99.90;;;;;;5062191;28;20079;-72
2022/09/30 03:09:42;;;;;;;10.20;4.07;;;11.30;99.90;;;;;;5060227;28;20021;-73
2022/09/30 03:12:47;;;;;;;12.30;3.63;;;11.30;99.90;;;;;;5066983;28;20039;-71
2022/09/30 03:15:48;;;;;;;13.73;3.67;;;11.20;99.90;;;;;;5068302;28;20115;-72
2022/09/30 03:18:30;;;;;;;3.63;3.25;;;11.20;99.90;;;;;;5070543;28;20052;-72
2022/09/30 03:21:06;;;;;;;7.13;3.30;;;11.20;99.90;;;;;;5068920;28;20426;-72
2022/09/30 03:23:50;;;;;;;5.90;3.30;;;11.20;99.90;;;;;;5068187;28;20099;-72
2022/09/30 03:26:38;;;;;;;5.00;2.97;;;11.20;99.90;;;;;;5076115;28;20052;-72
2022/09/30 03:29:22;;;;;;;7.28;3.28;;;11.20;99.90;;;;;;5067380;28;20021;-73
2022/09/30 03:32:00;;;;;;;6.93;3.15;;;11.20;99.90;;;;;;5076350;28;20023;-72
2022/09/30 03:34:26;;;;;;;5.47;2.90;;;11.20;99.90;;;;;;5076245;28;20025;-72
2022/09/30 03:37:08;;;;;;;10.18;3.70;;;11.20;99.90;;;;;;5063476;28;20559;-72
2022/09/30 03:39:51;;;;;;;8.07;3.58;;;11.20;99.90;;;;;;5063452;28;20029;-72
2022/09/30 03:42:43;;;;;;;8.70;3.28;;;11.20;99.90;;;;;;5060292;28;20485;-72
2022/09/30 03:45:19;;;;;;;7.90;3.47;;;11.20;99.90;;;;;;5075195;28;20029;-73
2022/09/30 03:47:50;;;;;;;5.53;3.17;;;11.20;99.90;;;;;;5068710;28;20021;-72
2022/09/30 03:50:20;;;;;;;8.65;3.20;;;11.20;99.90;;;;;;5064878;28;20443;-73
2022/09/30 03:52:47;;;;;;;5.25;3.00;;;11.20;99.90;;;;;;5068905;28;20061;-72
2022/09/30 03:55:14;;;;;;;9.93;3.83;;;11.20;99.90;;;;;;5066768;28;20021;-72
2022/09/30 03:57:41;;;;;;;14.02;3.60;;;11.30;99.90;;;;;;5070732;28;20024;-74
2022/09/30 04:00:08;;;;;;;8.23;3.40;;;11.30;99.90;;;;;;5071360;28;20059;-72
2022/09/30 04:02:35;;;;;;;7.90;3.85;;;11.30;99.90;;;;;;5071119;28;20025;-73
2022/09/30 04:05:01;;;;;;;7.57;3.45;;;11.30;99.90;;;;;;5074828;28;20043;-72
2022/09/30 04:07:27;;;;;;;14.23;3.53;;;11.30;99.90;;;;;;5073112;28;20627;-72
2022/09/30 04:09:52;;;;;;;10.13;3.80;;;11.30;99.90;;;;;;5075522;28;20025;-72
2022/09/30 04:12:18;;;;;;;6.82;2.92;;;11.30;99.90;;;;;;5058306;28;20037;-73
2022/09/30 04:14:44;;;;;;;7.13;3.35;;;11.30;99.90;;;;;;5058900;28;20021;-72
2022/09/30 04:17:10;;;;;;;8.20;3.67;;;11.30;99.90;;;;;;5059789;28;20079;-73
2022/09/30 04:19:38;;;;;;;5.82;3.38;;;11.30;99.90;;;;;;5066874;28;20074;-73
2022/09/30 04:22:06;;;;;;;5.00;2.90;;;11.30;99.90;;;;;;5075712;28;20032;-72
2022/09/30 04:24:32;;;;;;;6.97;3.28;;;11.30;99.90;;;;;;5070599;28;20020;-73
2022/09/30 04:26:58;;;;;;;9.35;4.13;;;11.30;99.90;;;;;;5073561;28;20021;-73
2022/09/30 04:29:23;;;;;;;11.32;3.80;;;11.30;99.90;;;;;;5070770;28;20444;-72
2022/09/30 04:31:49;;;;;;;7.90;3.55;;;11.30;99.90;;;;;;5068661;28;20021;-72
2022/09/30 04:34:15;;;;;;;13.05;4.03;;;11.30;99.90;;;;;;5066234;28;20104;-72
2022/09/30 04:36:42;;;;;;;9.63;3.92;;;11.30;99.90;;;;;;5075130;28;20025;-72
2022/09/30 04:39:08;;;;;;;9.05;4.00;;;11.30;99.90;;;;;;5070706;28;20024;-73
2022/09/30 04:41:34;;;;;;;6.53;3.50;;;11.40;99.90;;;;;;5073065;28;20111;-73
2022/09/30 04:44:04;;;;;;;10.85;4.50;;;11.30;99.90;;;;;;5074639;28;20389;-73
2022/09/30 04:46:31;;;;;;;;;;;11.40;99.90;;;;;;5075578;28;20570;-73
2022/09/30 04:48:57;;;;;;;10.43;4.03;;;11.40;99.90;;;;;;5075634;28;19905;-73
2022/09/30 04:51:22;;;;;;;12.20;4.50;;;11.40;99.90;;;;;;5057054;28;20400;-73
2022/09/30 04:53:49;;;;;;;10.13;4.28;;;11.30;99.90;;;;;;5069064;28;20493;-73
2022/09/30 04:56:18;;;;;;;8.70;4.47;;;11.40;99.90;;;;;;5062808;28;20087;-72
2022/09/30 04:58:44;;;;;;;10.88;4.55;;;11.40;99.90;;;;;;5059997;28;20021;-73
2022/09/30 05:01:15;;;;;;;9.07;4.47;;;11.30;99.90;;;;;;5065440;28;20388;-72
2022/09/30 05:03:42;;;;;;;13.65;5.25;;;11.40;99.90;;;;;;5062298;28;20507;-73
2022/09/30 05:06:08;;;;;;;8.63;5.13;;;11.40;99.90;;;;;;5069923;28;20025;-73
2022/09/30 05:08:35;;;;;;;8.02;4.53;;;11.40;99.90;;;;;;5064494;28;20032;-72
2022/09/30 05:11:09;;;;;;;7.15;4.57;;;11.30;99.90;;;;;;5070445;28;20370;-72
2022/09/30 05:13:38;;;;;;;10.30;4.40;;;11.40;99.90;;;;;;5068830;28;20092;-73
2022/09/30 05:16:05;;;;;;;9.80;5.35;;;11.40;99.90;;;;;;5073537;28;20100;-73
2022/09/30 05:18:32;;;;;;;14.02;4.10;;;11.40;99.90;;;;;;5071726;28;20089;-73
2022/09/30 05:20:58;;;;;;;11.20;4.20;;;11.40;99.90;;;;;;5075956;28;20048;-73
2022/09/30 05:23:29;;;;;;;6.68;4.20;;;11.40;99.90;;;;;;5073791;28;20044;-73
2022/09/30 05:25:55;;;;;;;5.57;3.40;;;11.40;99.90;;;;;;5060616;28;20366;-73
2022/09/30 05:28:21;;;;;;;6.13;3.55;;;11.40;99.90;;;;;;5071224;28;20063;-73
2022/09/30 05:30:49;;;;;;;8.05;3.80;;;11.40;99.90;;;;;;5072196;28;20079;-72
2022/09/30 05:33:15;;;;;;;7.63;3.42;;;11.40;99.90;;;;;;5073431;28;20024;-72
2022/09/30 05:35:42;;;;;;;12.45;4.15;;;11.40;99.90;;;;;;5076151;28;20516;-72
2022/09/30 05:38:09;;;;;;;6.18;3.40;;;11.40;99.90;;;;;;5073730;28;20144;-73
2022/09/30 05:40:39;;;;;;;5.68;3.22;;;11.30;99.90;;;;;;5063934;28;20035;-73
2022/09/30 05:43:05;;;;;;;8.07;3.58;;;11.30;99.90;;;;;;5073691;28;20047;-72
2022/09/30 05:45:32;;;;;;;5.72;3.47;;;11.40;99.90;;;;;;5075893;28;20033;-73
2022/09/30 05:47:58;;;;;;;6.22;3.80;;;11.30;99.90;;;;;;5068271;28;20505;-72
2022/09/30 05:50:24;;;;;;;10.55;4.15;;;11.30;99.90;;;;;;5067296;28;20021;-72
2022/09/30 05:52:51;;;;;;;9.85;3.90;;;11.40;99.90;;;;;;5061107;28;20154;-72
2022/09/30 05:55:18;;;;;;;5.32;3.25;;;11.30;99.90;;;;;;5063305;28;20015;-72
2022/09/30 05:57:48;;;;;;;4.60;3.38;;;11.30;99.90;;;;;;5060286;28;20431;-72
2022/09/30 06:00:14;;;;;;;9.70;3.83;;;11.40;99.90;;;;;;5060192;28;20028;-73
2022/09/30 06:02:40;;;;;;;6.63;4.00;;;11.30;99.90;;;;;;5072493;28;20487;-72
2022/09/30 06:05:07;;;;;;;4.68;3.55;;;11.40;99.90;;;;;;5070510;28;20542;-73
2022/09/30 06:07:35;;;;;;;7.75;4.15;;;11.30;99.90;;;;;;5070924;28;20029;-73
2022/09/30 06:10:02;;;;;;;6.90;3.50;;;11.30;99.90;;;;;;5072430;28;20048;-73
2022/09/30 06:12:28;;;;;;;7.47;3.88;;;11.30;99.90;;;;;;5077757;28;20032;-72
2022/09/30 06:14:55;;;;;;;6.68;4.10;;;11.30;99.90;;;;;;5073531;28;20009;-73
2022/09/30 06:17:22;;;;;;;15.75;5.10;;;11.30;99.90;;;;;;5075970;28;20032;-73
2022/09/30 06:19:51;;;;;;;7.05;3.90;;;11.30;99.90;;;;;;5075673;28;20017;-73
2022/09/30 06:22:17;;;;;;;8.40;3.97;;;11.40;99.90;;;;;;5066065;28;20031;-74
2022/09/30 06:24:43;;;;;;;5.68;3.85;;;11.40;99.90;;;;;;5076387;28;20048;-73
2022/09/30 06:27:10;;;;;;;9.43;4.35;;;11.40;99.90;;;;;;5078039;28;20051;-74
2022/09/30 06:29:35;;;;;;;4.20;3.42;;;11.40;99.90;;;;;;5076718;28;20013;-73
2022/09/30 06:32:01;;;;;;;5.88;4.35;;;11.40;99.90;;;;;;5071173;28;20031;-75
2022/09/30 06:34:27;;;;;;;5.85;3.53;;;11.40;99.90;;;;;;5071872;28;20074;-72
2022/09/30 06:36:53;;;;;;;6.40;3.97;;;11.50;99.90;;;;;;5076433;28;20041;-73
2022/09/30 06:39:19;;;;;;;9.93;4.03;;;11.50;99.90;;;;;;5074181;28;20035;-73
2022/09/30 06:41:45;;;;;;;4.45;3.53;;;11.50;99.90;;;;;;5070320;28;20032;-73
2022/09/30 06:44:11;;;;;;;7.03;3.50;;;11.50;99.90;;;;;;5066820;28;20036;-73
2022/09/30 06:46:37;;;;;;;4.95;4.05;;;11.50;99.90;;;;;;5072528;28;20497;-74
2022/09/30 06:49:04;;;;;;;11.93;4.68;;;11.50;99.90;;;;;;5062274;28;20017;-75
2022/09/30 06:51:32;;;;;;;4.32;3.88;;;11.50;99.90;;;;;;5063991;28;20024;-75
2022/09/30 06:53:58;;;;;;;9.05;4.10;;;11.50;99.90;;;;;;5065057;28;20017;-74
2022/09/30 06:56:25;;;;;;;9.50;3.47;;;11.60;99.90;;;;;;5071459;28;20389;-75
2022/09/30 06:58:51;;;;;;;5.50;4.10;;;11.60;99.90;;;;;;5070433;28;20013;-73
2022/09/30 07:01:19;;;;;;;5.25;3.35;;;11.60;99.90;;;;;;5078316;28;20024;-74
2022/09/30 07:03:45;;;;;;;7.75;3.95;;;11.60;99.90;;;;;;5077237;28;20025;-74
2022/09/30 07:06:13;;;;;;;5.68;3.60;;;11.60;99.90;;;;;;5068121;28;20033;-74
2022/09/30 07:08:39;;;;;;;10.13;3.58;;;11.70;99.90;;;;;;5076848;28;20020;-74
2022/09/30 07:11:13;;;;;;;5.55;3.65;;;11.70;99.90;;;;;;5073728;28;20021;-73
2022/09/30 07:13:46;;;;;;;5.85;2.92;;;11.70;99.90;;;;;;5075951;28;20542;-73
2022/09/30 07:16:13;;;;;;;3.53;3.00;;;11.70;99.90;;;;;;5082492;28;20025;-75
2022/09/30 07:18:44;;;;;;;8.88;3.33;;;11.70;99.90;;;;;;5064347;28;20091;-73
2022/09/30 07:21:12;;;;;;;5.03;3.25;;;11.70;99.90;;;;;;5078250;28;20028;-73
2022/09/30 07:23:44;;;;;;;6.30;3.25;;;11.70;99.90;;;;;;5075859;28;20082;-73
2022/09/30 07:26:10;;;;;;;6.55;2.47;;;11.70;99.90;;;;;;5065700;28;20374;-73
2022/09/30 07:28:38;;;;;;;6.68;3.25;;;11.70;99.90;;;;;;5071426;28;20036;-74
2022/09/30 07:31:24;;;;;;;6.70;2.88;;;11.70;99.90;;;;;;5063536;28;20060;-75
2022/09/30 07:33:50;;;;;;;3.83;2.70;;;11.80;99.90;;;;;;5072708;28;20053;-74
2022/09/30 07:36:19;;;;;;;4.13;3.00;;;11.80;99.90;;;;;;5069527;28;20029;-75
2022/09/30 07:38:50;;;;;;;5.97;2.65;;;11.80;99.90;;;;;;5057772;28;20045;-74
2022/09/30 07:41:25;;;;;;;5.13;2.95;;;11.90;99.90;;;;;;5071594;28;20032;-74
2022/09/30 07:43:55;;;;;;;4.32;2.80;;;11.90;99.90;;;;;;5069062;28;20082;-74
2022/09/30 07:46:28;;;;;;;4.43;2.83;;;12.00;99.90;;;;;;5067644;28;20033;-74
2022/09/30 07:48:58;;;;;;;7.28;2.80;;;12.00;99.90;;;;;;5068721;28;20499;-73
2022/09/30 07:51:51;;;;;;;9.93;3.22;;;12.10;99.90;;;;;;5068818;28;20016;-73
2022/09/30 07:54:22;;;;;;;4.80;2.80;;;12.20;99.90;;;;;;5065746;28;20117;-72
2022/09/30 07:56:48;;;;;;;;;;;12.20;99.90;;;;;;5071152;28;20111;-72
2022/09/30 07:59:14;;;;;;;8.30;2.85;;;12.20;99.90;;;;;;5071024;28;19911;-73
2022/09/30 08:01:40;;;;;;;5.78;2.65;;;12.30;99.90;;;;;;5073151;28;20028;-73
2022/09/30 08:04:10;;;;;;;6.47;2.30;;;12.30;99.90;;;;;;5073982;28;20036;-73
2022/09/30 08:06:38;;;;;;;6.50;2.58;;;12.30;99.90;;;;;;5077547;28;20067;-74
2022/09/30 08:09:05;;;;;;;8.80;3.08;;;12.30;99.90;;;;;;5072739;28;20088;-73
2022/09/30 08:11:36;;;;;;;3.85;2.80;;;12.30;99.90;;;;;;5069399;28;20052;-74
2022/09/30 08:14:02;;;;;;;;;;;12.30;99.90;;;;;;5073074;28;20054;-74
2022/09/30 08:16:28;;;;;;;3.83;2.58;;;12.40;99.90;;;;;;5073447;28;19904;-73
2022/09/30 08:18:59;;;;;;;9.10;2.38;;;12.40;99.90;;;;;;5075945;28;20016;-75
2022/09/30 08:21:26;;;;;;;7.90;2.92;;;12.30;99.90;;;;;;5072753;28;20025;-74
2022/09/30 08:23:52;;;;;;;4.68;2.90;;;12.30;99.90;;;;;;5058404;28;20009;-74
2022/09/30 08:26:19;;;;;;;6.20;2.80;;;12.30;99.90;;;;;;5073349;28;20036;-75
2022/09/30 08:28:48;;;;;;;6.68;2.92;;;12.30;99.90;;;;;;5076795;28;20028;-76
2022/09/30 08:31:22;;;;;;;7.55;3.47;;;12.30;99.90;;;;;;5069250;28;20025;-74
2022/09/30 08:33:48;;;;;;;4.78;2.97;;;12.30;99.90;;;;;;5065749;28;20033;-75
2022/09/30 08:36:20;;;;;;;7.93;3.22;;;12.30;99.90;;;;;;5065349;28;20029;-75
2022/09/30 08:38:46;;;;;;;8.00;3.30;;;12.30;99.90;;;;;;5078644;28;20047;-74
2022/09/30 08:41:39;;;;;;;7.47;2.90;;;12.40;99.90;;;;;;5066647;28;20048;-73
2022/09/30 08:44:08;;;;;;;8.30;3.20;;;12.40;99.90;;;;;;5066348;28;20052;-74
2022/09/30 08:46:39;;;;;;;6.82;3.15;;;12.40;99.90;;;;;;5071481;28;20504;-75
2022/09/30 08:49:29;;;;;;;10.15;3.42;;;12.30;99.90;;;;;;5063635;28;20021;-75
2022/09/30 08:51:58;;;;;;;8.05;3.58;;;12.30;99.90;;;;;;5066838;28;20025;-75
2022/09/30 08:54:29;;;;;;;6.30;3.50;;;12.20;99.90;;;;;;5062636;28;20017;-74
2022/09/30 08:56:55;;;;;;;;;;;12.30;99.90;;;;;;5065503;28;20028;-75
2022/09/30 08:59:29;;;;;;;6.93;3.10;;;12.30;99.90;;;;;;5057697;28;19909;-74
2022/09/30 09:02:20;;;;;;;4.90;2.97;;;12.40;99.90;;;;;;5067471;28;20564;-73
2022/09/30 09:04:47;;;;;;;9.43;3.67;;;12.40;99.90;;;;;;5075241;28;20060;-74
2022/09/30 09:07:29;;;;;;;9.25;3.88;;;12.60;99.90;;;;;;5073630;28;20090;-74
2022/09/30 09:10:04;;;;;;;7.55;2.90;;;12.70;99.90;;;;;;5075168;28;20388;-74
2022/09/30 09:12:41;;;;;;;5.55;2.65;;;12.90;99.90;;;;;;5083046;28;20020;-75
2022/09/30 09:15:21;;;;;;;6.80;2.83;;;12.90;99.90;;;;;;5071740;28;20024;-75
2022/09/30 09:18:17;;;;;;;7.10;2.75;;;13.00;99.90;;;;;;5074504;28;20028;-73
2022/09/30 09:21:15;;;;;;;5.53;2.90;;;12.90;99.90;;;;;;5064328;28;20535;-76
2022/09/30 09:23:41;;;;;;;5.93;3.03;;;13.00;99.90;;;;;;5072314;28;20036;-75
2022/09/30 09:26:12;;;;;;;5.15;2.90;;;13.00;99.90;;;;;;5074606;28;20029;-76
2022/09/30 09:29:16;;;;;;;7.18;2.67;;;13.00;99.90;;;;;;5058206;28;20029;-74
2022/09/30 09:31:42;;;;;;;3.83;2.60;;;13.00;99.90;;;;;;5060537;28;20029;-75
2022/09/30 09:34:12;;;;;;;10.50;3.25;;;13.20;99.90;;;;;;5067922;28;20539;-74
2022/09/30 09:37:09;;;;;;;5.28;3.50;;;13.30;99.90;;;;;;5078362;28;20089;-74
2022/09/30 09:40:08;;;;;;;5.20;2.75;;;13.40;99.90;;;;;;5062718;28;20028;-76
2022/09/30 09:42:51;;;;;;;6.80;4.05;;;13.50;99.90;;;;;;5064645;28;20032;-75
2022/09/30 09:45:23;;;;;;;8.18;3.10;;;13.50;99.90;;;;;;5062710;28;20025;-76
2022/09/30 09:47:58;;;;;;;7.25;2.97;;;13.60;99.90;;;;;;5073620;28;20032;-75
2022/09/30 09:50:48;;;;;;;5.50;2.95;;;13.60;99.90;;;;;;5071912;28;20082;-75
2022/09/30 09:53:46;;;;;;;4.72;2.40;;;13.80;99.90;;;;;;5068474;28;20029;-74
2022/09/30 09:56:17;;;;;;;3.33;2.78;;;14.00;99.90;;;;;;5065749;28;20070;-74
2022/09/30 09:59:08;;;;;;;22.20;3.60;;;14.30;99.90;;;;;;5067370;28;20032;-74
2022/09/30 10:01:46;;;;;;;6.28;3.10;;;14.60;99.90;;;;;;5071533;28;20021;-75
2022/09/30 10:04:24;;;;;;;7.53;2.90;;;14.50;99.90;;;;;;5083401;28;20056;-76
2022/09/30 10:07:00;;;;;;;5.95;3.22;;;14.60;99.90;;;;;;5072024;28;20396;-74
2022/09/30 10:09:31;;;;;;;7.05;2.60;;;14.60;99.90;;;;;;5066657;28;20114;-74
2022/09/30 10:12:06;;;;;;;3.45;1.98;;;14.70;99.90;;;;;;5067239;28;20104;-74
2022/09/30 10:14:33;;;;;;;3.60;2.15;;;14.70;99.90;;;;;;5072504;28;20559;-75
2022/09/30 10:17:01;;;;;;;4.90;2.83;;;14.60;99.90;;;;;;5067751;28;20025;-76
2022/09/30 10:19:29;;;;;;;6.85;2.90;;;14.40;99.90;;;;;;5069791;28;20032;-75
2022/09/30 10:22:16;;;;;;;4.57;2.75;;;14.50;99.90;;;;;;5074774;28;20020;-76
2022/09/30 10:24:42;;;;;;;2.35;2.05;;;14.70;99.90;;;;;;5077012;28;20142;-75
2022/09/30 10:27:29;;;;;;;7.90;2.00;;;14.80;99.90;;;;;;5070050;28;20107;-76
2022/09/30 10:29:55;;;;;;;4.38;2.00;;;14.70;99.90;;;;;;5077464;28;20048;-77
2022/09/30 10:32:22;;;;;;;6.78;2.58;;;14.60;99.90;;;;;;5084129;28;20104;-75
2022/09/30 10:34:57;;;;;;;7.15;2.22;;;14.70;99.90;;;;;;5067787;28;20024;-77
2022/09/30 10:37:24;;;;;;;5.00;2.42;;;14.70;99.90;;;;;;5067846;28;20045;-76
2022/09/30 10:40:00;;;;;;;2.78;2.13;;;14.80;99.90;;;;;;5063405;28;20108;-75
2022/09/30 10:42:31;;;;;;;4.30;2.30;;;14.90;99.90;;;;;;5060339;28;20021;-77
2022/09/30 10:45:03;;;;;;;5.30;2.47;;;15.00;99.90;;;;;;5076221;28;20028;-75
2022/09/30 10:47:29;;;;;;;7.13;2.75;;;15.00;99.90;;;;;;5062408;28;20033;-78
2022/09/30 10:49:57;;;;;;;4.18;2.47;;;14.90;99.90;;;;;;5064590;28;20071;-77
2022/09/30 10:52:46;;;;;;;7.05;2.42;;;14.90;99.90;;;;;;5064260;28;20021;-76
2022/09/30 10:55:23;;;;;;;4.35;2.40;;;15.20;99.90;;;;;;5066093;28;20025;-77
2022/09/30 10:57:51;;;;;;;6.25;2.53;;;15.30;99.90;;;;;;5066744;28;20078;-77
2022/09/30 11:00:21;;;;;;;5.65;2.83;;;15.30;99.90;;;;;;5078586;28;20029;-75
2022/09/30 11:03:05;;;;;;;6.10;2.80;;;15.50;99.90;;;;;;5073562;28;20032;-76
2022/09/30 11:05:37;;;;;;;3.58;2.20;;;15.50;99.90;;;;;;5076908;28;20059;-78
2022/09/30 11:08:05;;;;;;;3.58;2.00;;;15.50;99.90;;;;;;5074924;28;20024;-77
2022/09/30 11:10:59;;;;;;;2.25;1.63;;;15.40;99.90;;;;;;5068332;28;20044;-78
2022/09/30 11:13:47;;;;;;;4.25;2.15;;;15.30;99.90;;;;;;5069381;28;20095;-76
2022/09/30 11:16:40;;;;;;;3.97;2.25;;;15.50;99.90;;;;;;5076793;28;20053;-76
2022/09/30 11:19:18;;;;;;;4.68;1.80;;;15.60;99.90;;;;;;5065819;28;20107;-79
2022/09/30 11:22:10;;;;;;;2.45;1.70;;;15.50;99.90;;;;;;5065492;28;20029;-78
2022/09/30 11:24:44;;;;;;;4.15;1.75;;;15.30;99.90;;;;;;5068901;28;20099;-77
2022/09/30 11:27:29;;;;;;;3.13;1.80;;;15.50;99.90;;;;;;5069004;28;20112;-80
2022/09/30 11:30:30;;;;;;;3.83;1.70;;;15.70;99.90;;;;;;5077689;28;20075;-77
2022/09/30 11:32:55;;;;;;;;;;;15.90;99.90;;;;;;5070337;28;20044;-79
2022/09/30 11:35:27;;;;;;;2.10;1.63;;;16.00;99.90;;;;;;5068391;28;19904;-76
2022/09/30 11:38:21;;;;;;;3.50;1.70;;;16.00;99.90;;;;;;5064370;28;20537;-78
2022/09/30 11:41:06;;;;;;;5.03;1.65;;;16.00;99.90;;;;;;5067106;28;20028;-78
2022/09/30 11:43:49;;;;;;;3.00;1.98;;;15.80;99.90;;;;;;5075129;28;20401;-78
2022/09/30 11:46:30;;;;;;;5.97;2.33;;;15.60;99.90;;;;;;5063139;28;20037;-77
2022/09/30 11:48:58;;;;;;;;;;;15.40;99.90;;;;;;5066538;28;20085;-78
2022/09/30 11:51:47;;;;;;;6.95;1.85;;;15.40;99.90;;;;;;5059257;28;20491;-77
2022/09/30 11:54:24;;;;;;;3.78;1.95;;;15.50;99.90;;;;;;5062768;28;20028;-78
2022/09/30 11:57:05;;;;;;;3.47;1.65;;;15.70;99.90;;;;;;5056688;28;20024;-78
2022/09/30 11:59:48;;;;;;;2.85;1.90;;;16.10;99.90;;;;;;5074356;28;20032;-79
2022/09/30 12:02:30;;;;;;;4.70;1.52;;;16.50;99.90;;;;;;5069927;28;20032;-77
2022/09/30 12:05:02;;;;;;;4.78;1.35;;;16.90;99.90;;;;;;5066413;28;20029;-78
2022/09/30 12:07:43;;;;;;;2.80;1.40;;;17.20;99.90;;;;;;5070277;28;20133;-79
2022/09/30 12:10:21;;;;;;;2.95;1.27;;;17.30;99.90;;;;;;5062166;28;20371;-80
2022/09/30 12:12:55;;;;;;;2.50;1.50;;;17.20;99.90;;;;;;5067423;28;20031;-77
2022/09/30 12:15:22;;;;;;;2.35;1.02;;;17.20;99.90;;;;;;5073682;28;20099;-79
2022/09/30 12:18:29;;;;;;;2.63;1.23;;;17.10;99.90;;;;;;5069293;28;20059;-75
2022/09/30 12:21:02;;;;;;;2.92;1.38;;;16.90;99.90;;;;;;5066391;28;20072;-76
2022/09/30 12:23:32;;;;;;;3.47;1.30;;;16.90;99.90;;;;;;5070017;28;20035;-77
2022/09/30 12:25:59;;;;;;;;;;;17.00;99.90;;;;;;5073832;28;20029;-74
2022/09/30 12:32:07;;;;;;;3.22;0.98;;;17.20;99.90;;;;;;5075239;28;20076;-77
2022/09/30 12:35:00;;;;;;;2.60;1.20;;;17.30;99.90;;;;;;5069817;28;20020;-76
2022/09/30 12:37:47;;;;;;;2.50;1.30;;;17.40;99.90;;;;;;5064152;28;20179;-76
2022/09/30 12:40:31;;;;;;;4.47;1.27;;;17.60;99.90;;;;;;5064518;28;20023;-77
2022/09/30 12:43:29;;;;;;;2.63;1.20;;;17.50;99.90;;;;;;5076589;28;20028;-79
2022/09/30 12:46:03;;;;;;;4.68;1.25;;;17.20;99.90;;;;;;5071526;28;20484;-77
2022/09/30 12:48:37;;;;;;;2.80;1.58;;;17.10;99.90;;;;;;5071987;28;20438;-76
2022/09/30 12:51:04;;;;;;;1.45;1.10;;;17.40;99.90;;;;;;5085783;28;20036;-78
2022/09/30 12:53:34;;;;;;;2.45;1.10;;;17.70;99.90;;;;;;5064575;28;20032;-78
2022/09/30 12:56:11;;;;;;;1.60;1.20;;;18.00;99.90;;;;;;5073175;28;20017;-79
2022/09/30 12:58:45;;;;;;;3.25;1.40;;;18.10;99.90;;;;;;5061604;28;20500;-76
2022/09/30 13:01:35;;;;;;;4.72;1.75;;;18.00;99.90;;;;;;5074849;28;20033;-78
2022/09/30 13:04:01;;;;;;;2.72;1.08;;;17.60;99.90;;;;;;5070987;28;20405;-77
2022/09/30 13:06:55;;;;;;;4.57;1.23;;;17.40;99.90;;;;;;5073126;28;20020;-79
2022/09/30 13:09:30;;;;;;;2.58;1.40;;;17.20;99.90;;;;;;5041065;28;20037;-79
2022/09/30 13:11:59;;;;;;;2.30;1.40;;;17.20;99.90;;;;;;5071514;28;20029;-78
2022/09/30 13:14:38;;;;;;;3.22;1.15;;;17.30;99.90;;;;;;5074762;28;20412;-76
2022/09/30 13:17:07;;;;;;;2.25;1.23;;;17.60;99.90;;;;;;5065322;28;20021;-77
2022/09/30 13:19:47;;;;;;;2.33;1.13;;;17.80;99.90;;;;;;5070742;28;20565;-79
2022/09/30 13:22:19;;;;;;;3.05;1.20;;;17.90;99.90;;;;;;5095729;28;20036;-77
2022/09/30 13:27:45;;;;;;;1.42;1.00;;;17.90;99.90;;;;;;5083573;28;20119;-77
2022/09/30 13:30:13;;;;;;;3.58;1.20;;;17.80;99.90;;;;;;5081402;28;20095;-78